Time;durP1;ratioP1;P1;durP2;ratioP2;P2;SDS_P1;SDS_P2;PMS_P1;PMS_P2;Temp;Humidity;BMP_temperature;BMP_pressure;BME280_temperature;BME280_humidity;BME280_pressure;Samples;Min_cycle;Max_cycle;Signal;HPM_P1;HPM_P2
2022/07/05 00:03:51;;;;;;;2.13;1.90;;;;;;;;;;10234993;29;20387;-83
2022/07/05 00:09:10;;;;;;;2.40;2.05;;;;;;;;;;10249604;28;20075;-83
2022/07/05 00:14:30;;;;;;;2.65;2.00;;;;;;;;;;10236698;29;20035;-83
2022/07/05 00:19:49;;;;;;;2.03;1.92;;;;;;;;;;10238761;29;20380;-83
2022/07/05 00:25:08;;;;;;;2.10;2.00;;;;;;;;;;10244261;28;20055;-83
2022/07/05 00:30:28;;;;;;;1.90;1.80;;;;;;;;;;10230302;29;20056;-83
2022/07/05 00:35:47;;;;;;;2.30;2.00;;;;;;;;;;10238042;28;20403;-83
2022/07/05 00:41:06;;;;;;;2.00;1.90;;;;;;;;;;10231854;28;20043;-83
2022/07/05 00:46:26;;;;;;;2.33;2.10;;;;;;;;;;10261274;28;20058;-83
2022/07/05 00:51:46;;;;;;;2.10;2.00;;;;;;;;;;10233958;28;20047;-83
2022/07/05 00:57:05;;;;;;;3.10;2.15;;;;;;;;;;10253060;28;20046;-83
2022/07/05 01:02:25;;;;;;;2.00;1.90;;;;;;;;;;10260457;28;20043;-83
2022/07/05 01:07:44;;;;;;;2.10;1.95;;;;;;;;;;10244640;28;20043;-83
2022/07/05 01:13:03;;;;;;;1.95;1.85;;;;;;;;;;10257882;28;20044;-83
2022/07/05 01:18:22;;;;;;;2.00;1.90;;;;;;;;;;10241788;28;20035;-83
2022/07/05 01:23:42;;;;;;;1.95;1.77;;;;;;;;;;10249771;28;20062;-83
2022/07/05 01:29:01;;;;;;;1.95;1.70;;;;;;;;;;10229974;28;20060;-83
2022/07/05 01:34:20;;;;;;;1.98;1.88;;;;;;;;;;10234670;28;20050;-83
2022/07/05 01:39:39;;;;;;;2.00;1.80;;;;;;;;;;10200943;28;20039;-83
2022/07/05 01:44:58;;;;;;;2.28;1.75;;;;;;;;;;10233708;28;20042;-83
2022/07/05 01:50:20;;;;;;;2.22;1.80;;;;;;;;;;10248060;28;20048;-83
2022/07/05 01:55:40;;;;;;;1.83;1.70;;;;;;;;;;10242445;28;20055;-83
2022/07/05 02:00:59;;;;;;;1.70;1.60;;;;;;;;;;10229712;28;20384;-83
2022/07/05 02:06:19;;;;;;;1.85;1.75;;;;;;;;;;10240318;28;20051;-83
2022/07/05 02:11:38;;;;;;;2.20;1.90;;;;;;;;;;10255503;28;20043;-83
2022/07/05 02:16:58;;;;;;;2.47;2.28;;;;;;;;;;10259047;28;20051;-83
2022/07/05 02:22:18;;;;;;;2.00;1.90;;;;;;;;;;10255740;28;20047;-83
2022/07/05 02:27:38;;;;;;;1.77;1.67;;;;;;;;;;10258847;28;20823;-83
2022/07/05 02:32:58;;;;;;;2.45;1.70;;;;;;;;;;10261861;28;20051;-83
2022/07/05 02:38:17;;;;;;;2.08;1.88;;;;;;;;;;10229735;28;20043;-83
2022/07/05 02:43:37;;;;;;;1.98;1.88;;;;;;;;;;10249686;28;20044;-83
2022/07/05 02:48:58;;;;;;;1.63;1.52;;;;;;;;;;10261139;28;20051;-83
2022/07/05 02:54:19;;;;;;;1.90;1.80;;;;;;;;;;10233546;28;20537;-83
2022/07/05 02:59:38;;;;;;;1.83;1.73;;;;;;;;;;10236572;28;20050;-83
2022/07/05 03:05:01;;;;;;;2.13;1.92;;;;;;;;;;10226604;28;20043;-83
2022/07/05 03:10:22;;;;;;;1.90;1.67;;;;;;;;;;10246803;28;20396;-83
2022/07/05 03:15:42;;;;;;;2.00;1.90;;;;;;;;;;10242130;28;20036;-83
2022/07/05 03:21:04;;;;;;;1.70;1.60;;;;;;;;;;10216274;28;20048;-83
2022/07/05 03:26:26;;;;;;;2.25;1.63;;;;;;;;;;10214626;28;20059;-83
2022/07/05 03:31:46;;;;;;;1.70;1.60;;;;;;;;;;10237493;28;20048;-83
2022/07/05 03:37:05;;;;;;;1.92;1.83;;;;;;;;;;10250797;28;20044;-83
2022/07/05 03:42:24;;;;;;;2.15;1.70;;;;;;;;;;10225627;28;20051;-83
2022/07/05 03:47:44;;;;;;;1.80;1.70;;;;;;;;;;10257892;28;20099;-83
2022/07/05 03:53:06;;;;;;;2.00;1.90;;;;;;;;;;10238987;28;20055;-83
2022/07/05 03:58:25;;;;;;;1.98;1.88;;;;;;;;;;10250293;28;20039;-83
2022/07/05 04:03:45;;;;;;;1.80;1.70;;;;;;;;;;10234459;29;20048;-83
2022/07/05 04:09:07;;;;;;;1.95;1.77;;;;;;;;;;10224345;29;20052;-83
2022/07/05 04:14:28;;;;;;;1.80;1.70;;;;;;;;;;10229788;29;20107;-83
2022/07/05 04:19:47;;;;;;;1.90;1.70;;;;;;;;;;10231045;28;20043;-82
2022/07/05 04:25:19;;;;;;;1.70;1.60;;;;;;;;;;10220282;28;20051;-83
2022/07/05 04:30:44;;;;;;;2.00;1.80;;;;;;;;;;10236408;28;20043;-83
2022/07/05 04:36:05;;;;;;;1.70;1.60;;;;;;;;;;10247566;28;20042;-83
2022/07/05 04:41:24;;;;;;;1.73;1.63;;;;;;;;;;10251043;28;20423;-83
2022/07/05 04:46:44;;;;;;;1.60;1.50;;;;;;;;;;10248234;28;20054;-84
2022/07/05 04:52:04;;;;;;;2.30;1.70;;;;;;;;;;10257062;28;20178;-83
2022/07/05 04:57:25;;;;;;;1.70;1.60;;;;;;;;;;10231028;28;20044;-83
2022/07/05 05:02:44;;;;;;;1.60;1.50;;;;;;;;;;10240038;28;20051;-83
2022/07/05 05:08:04;;;;;;;1.60;1.50;;;;;;;;;;10233519;28;20078;-82
2022/07/05 05:13:23;;;;;;;1.65;1.50;;;;;;;;;;10257500;28;20448;-83
2022/07/05 05:18:42;;;;;;;1.60;1.50;;;;;;;;;;10264855;28;20440;-83
2022/07/05 05:24:02;;;;;;;1.77;1.50;;;;;;;;;;10222647;29;20089;-83
2022/07/05 05:29:21;;;;;;;1.52;1.42;;;;;;;;;;10248774;28;20043;-83
2022/07/05 05:34:40;;;;;;;1.67;1.58;;;;;;;;;;10246608;28;20395;-83
2022/07/05 05:39:59;;;;;;;1.45;1.35;;;;;;;;;;10259381;28;20043;-83
2022/07/05 05:45:19;;;;;;;1.73;1.60;;;;;;;;;;10238368;28;20442;-83
2022/07/05 05:50:39;;;;;;;2.10;1.40;;;;;;;;;;10224476;28;20499;-82
2022/07/05 05:55:59;;;;;;;2.00;1.60;;;;;;;;;;10244474;28;20054;-83
2022/07/05 06:01:18;;;;;;;1.52;1.42;;;;;;;;;;10253920;28;20059;-82
2022/07/05 06:06:37;;;;;;;1.70;1.60;;;;;;;;;;10221495;28;20046;-83
2022/07/05 06:11:57;;;;;;;1.65;1.55;;;;;;;;;;10208301;28;20043;-82
2022/07/05 06:17:16;;;;;;;1.60;1.45;;;;;;;;;;10231124;28;20044;-83
2022/07/05 06:22:36;;;;;;;1.50;1.40;;;;;;;;;;10221115;29;20062;-83
2022/07/05 06:27:57;;;;;;;1.55;1.35;;;;;;;;;;10251283;28;20049;-82
2022/07/05 06:33:16;;;;;;;1.75;1.65;;;;;;;;;;10255207;28;20043;-83
2022/07/05 06:38:36;;;;;;;1.40;1.30;;;;;;;;;;10246567;28;20047;-83
2022/07/05 06:43:55;;;;;;;1.80;1.42;;;;;;;;;;10245973;28;20047;-83
2022/07/05 06:49:17;;;;;;;1.52;1.42;;;;;;;;;;10238198;28;20051;-82
2022/07/05 06:54:37;;;;;;;1.60;1.50;;;;;;;;;;10226503;28;20039;-83
2022/07/05 06:59:57;;;;;;;1.23;1.20;;;;;;;;;;10231965;28;20044;-82
2022/07/05 07:05:16;;;;;;;1.60;1.50;;;;;;;;;;10245168;28;20039;-82
2022/07/05 07:10:35;;;;;;;1.50;1.40;;;;;;;;;;10227595;28;20040;-83
2022/07/05 07:15:56;;;;;;;1.85;1.67;;;;;;;;;;10232826;28;20043;-83
2022/07/05 07:21:15;;;;;;;1.70;1.60;;;;;;;;;;10242950;28;20105;-83
2022/07/05 07:32:13;;;;;;;2.05;1.73;;;;;;;;;;10210646;28;20539;-82
2022/07/05 07:37:32;;;;;;;1.95;1.60;;;;;;;;;;10227139;28;20039;-83
2022/07/05 07:42:52;;;;;;;4.68;1.80;;;;;;;;;;10186408;29;20063;-83
2022/07/05 07:48:12;;;;;;;1.77;1.67;;;;;;;;;;10217649;28;20123;-82
2022/07/05 07:53:32;;;;;;;2.78;1.58;;;;;;;;;;10196253;28;20040;-82
2022/07/05 07:58:51;;;;;;;1.92;1.58;;;;;;;;;;10208305;28;20044;-82
2022/07/05 08:04:12;;;;;;;3.15;1.48;;;;;;;;;;10178679;29;20075;-83
2022/07/05 08:09:32;;;;;;;2.40;1.40;;;;;;;;;;10233477;29;20054;-84
2022/07/05 08:14:51;;;;;;;1.55;1.45;;;;;;;;;;10228436;28;20035;-82
2022/07/05 08:25:49;;;;;;;3.13;1.60;;;;;;;;;;10200597;29;20448;-82
2022/07/05 08:31:08;;;;;;;2.78;1.50;;;;;;;;;;10238133;28;20043;-82
2022/07/05 08:36:28;;;;;;;2.78;1.70;;;;;;;;;;10228693;28;20040;-83
2022/07/05 08:41:51;;;;;;;2.30;1.67;;;;;;;;;;10210001;28;20050;-82
2022/07/05 08:47:11;;;;;;;2.85;1.70;;;;;;;;;;10236498;28;20047;-82
2022/07/05 08:52:31;;;;;;;3.15;1.88;;;;;;;;;;10221202;29;20036;-83
2022/07/05 08:57:51;;;;;;;1.98;1.50;;;;;;;;;;10247877;28;20043;-82
2022/07/05 09:03:10;;;;;;;1.88;1.50;;;;;;;;;;10259618;28;20035;-82
2022/07/05 09:08:32;;;;;;;5.45;2.03;;;;;;;;;;10221861;28;20051;-81
2022/07/05 09:13:52;;;;;;;3.42;1.90;;;;;;;;;;10208040;29;20047;-83
2022/07/05 09:19:12;;;;;;;2.40;2.00;;;;;;;;;;10218128;28;20536;-82
2022/07/05 09:24:31;;;;;;;3.15;2.30;;;;;;;;;;10208365;28;20063;-82
2022/07/05 09:29:53;;;;;;;6.78;2.60;;;;;;;;;;10214625;28;20056;-83
2022/07/05 09:35:19;;;;;;;3.80;2.03;;;;;;;;;;10217108;28;20098;-82
2022/07/05 09:40:47;;;;;;;1.92;1.80;;;;;;;;;;10211845;28;20167;-82
2022/07/05 09:46:07;;;;;;;2.33;1.70;;;;;;;;;;10220522;28;20040;-82
2022/07/05 09:51:26;;;;;;;3.60;1.95;;;;;;;;;;10205487;29;20043;-82
2022/07/05 09:56:47;;;;;;;2.65;2.15;;;;;;;;;;10202501;28;20051;-82
2022/07/05 10:02:07;;;;;;;3.53;1.90;;;;;;;;;;10222546;28;20044;-81
2022/07/05 10:07:33;;;;;;;2.03;1.70;;;;;;;;;;10192478;28;20040;-82
2022/07/05 10:12:56;;;;;;;1.83;1.70;;;;;;;;;;10206218;28;20107;-81
2022/07/05 10:18:20;;;;;;;1.83;1.50;;;;;;;;;;10217044;28;20117;-82
2022/07/05 10:23:44;;;;;;;1.92;1.60;;;;;;;;;;10216912;28;20518;-82
2022/07/05 10:29:04;;;;;;;2.33;1.65;;;;;;;;;;10213700;29;20496;-82
2022/07/05 10:34:24;;;;;;;1.67;1.58;;;;;;;;;;10212546;28;20052;-83
2022/07/05 10:39:43;;;;;;;1.58;1.38;;;;;;;;;;10201414;29;20044;-82
2022/07/05 10:45:03;;;;;;;1.60;1.50;;;;;;;;;;10218577;28;20099;-82
2022/07/05 10:50:22;;;;;;;1.48;1.38;;;;;;;;;;10220896;28;20047;-82
2022/07/05 10:55:48;;;;;;;3.72;1.40;;;;;;;;;;10243817;28;20047;-82
2022/07/05 11:01:23;;;;;;;1.67;1.45;;;;;;;;;;10231638;28;20040;-82
2022/07/05 11:06:43;;;;;;;2.42;1.25;;;;;;;;;;10225528;28;20081;-82
2022/07/05 11:12:04;;;;;;;1.20;1.10;;;;;;;;;;10228655;28;21814;-82
2022/07/05 11:17:27;;;;;;;1.45;1.10;;;;;;;;;;10213022;28;20055;-82
2022/07/05 11:23:03;;;;;;;1.00;0.90;;;;;;;;;;10207989;28;20058;-82
2022/07/05 11:28:23;;;;;;;4.00;0.98;;;;;;;;;;10211262;28;20048;-82
2022/07/05 11:33:43;;;;;;;1.98;1.10;;;;;;;;;;10214034;28;20102;-82
2022/07/05 11:39:08;;;;;;;2.15;1.10;;;;;;;;;;10219552;28;20066;-82
2022/07/05 11:44:31;;;;;;;2.33;1.42;;;;;;;;;;10211009;28;20051;-82
2022/07/05 11:49:55;;;;;;;8.48;7.38;;;;;;;;;;10229258;28;20044;-82
2022/07/05 11:55:14;;;;;;;23.80;19.65;;;;;;;;;;10205534;29;20043;-82
2022/07/05 12:00:35;;;;;;;22.27;19.15;;;;;;;;;;10221125;28;20044;-82
2022/07/05 12:05:55;;;;;;;20.33;16.27;;;;;;;;;;10197303;29;20507;-82
2022/07/05 12:17:11;;;;;;;6.68;6.03;;;;;;;;;;10212223;29;20040;-82
2022/07/05 12:22:35;;;;;;;4.70;4.30;;;;;;;;;;10211127;29;20087;-81
2022/07/05 12:27:56;;;;;;;3.85;3.50;;;;;;;;;;10201101;29;20047;-82
2022/07/05 12:33:15;;;;;;;5.05;3.42;;;;;;;;;;10201414;29;20369;-82
2022/07/05 12:38:34;;;;;;;3.30;3.00;;;;;;;;;;10196719;29;20042;-83
2022/07/05 12:43:54;;;;;;;2.70;2.50;;;;;;;;;;10208226;28;20054;-82
2022/07/05 12:49:14;;;;;;;2.03;1.83;;;;;;;;;;10204535;28;20047;-83
2022/07/05 13:00:19;;;;;;;1.70;1.60;;;;;;;;;;10209506;28;20051;-82
2022/07/05 13:05:38;;;;;;;2.70;1.50;;;;;;;;;;10222981;28;20484;-82
2022/07/05 13:10:57;;;;;;;3.55;1.20;;;;;;;;;;10196777;28;20566;-82
2022/07/05 13:16:16;;;;;;;1.50;1.40;;;;;;;;;;10214172;29;20047;-83
2022/07/05 13:21:36;;;;;;;1.55;1.40;;;;;;;;;;10239352;28;20046;-83
2022/07/05 13:26:56;;;;;;;1.75;1.30;;;;;;;;;;10220039;29;20623;-83
2022/07/05 13:32:16;;;;;;;3.60;1.40;;;;;;;;;;10239632;28;20436;-82
2022/07/05 13:37:36;;;;;;;2.03;1.25;;;;;;;;;;10236286;28;20036;-83
2022/07/05 13:42:55;;;;;;;4.70;1.23;;;;;;;;;;10237081;28;20062;-82
2022/07/05 13:48:15;;;;;;;1.35;1.13;;;;;;;;;;10207336;29;20063;-82
2022/07/05 13:53:36;;;;;;;3.88;1.55;;;;;;;;;;10225346;28;20036;-82
2022/07/05 13:58:55;;;;;;;2.90;1.80;;;;;;;;;;10226141;28;20114;-83
2022/07/05 14:04:14;;;;;;;5.75;2.90;;;;;;;;;;10226587;28;20040;-82
2022/07/05 14:09:33;;;;;;;8.52;3.15;;;;;;;;;;10241523;28;20046;-82
2022/07/05 14:14:53;;;;;;;6.20;2.30;;;;;;;;;;10220805;28;20388;-84
2022/07/05 14:20:13;;;;;;;4.78;2.25;;;;;;;;;;10222026;29;20043;-82
2022/07/05 14:25:32;;;;;;;5.43;2.17;;;;;;;;;;10220887;28;20055;-83
2022/07/05 14:30:51;;;;;;;4.75;2.78;;;;;;;;;;10227224;28;20055;-82
2022/07/05 14:36:11;;;;;;;6.00;2.13;;;;;;;;;;10230270;28;20415;-82
2022/07/05 14:41:31;;;;;;;3.33;1.98;;;;;;;;;;10236937;28;20036;-82
2022/07/05 14:46:51;;;;;;;6.07;1.80;;;;;;;;;;10222380;28;20051;-82
2022/07/05 14:52:10;;;;;;;4.07;1.92;;;;;;;;;;10232481;28;20403;-82
2022/07/05 14:57:29;;;;;;;2.83;1.55;;;;;;;;;;10241270;28;20040;-83
2022/07/05 15:02:49;;;;;;;3.67;1.42;;;;;;;;;;10238083;28;20058;-82
2022/07/05 15:08:08;;;;;;;2.75;1.73;;;;;;;;;;10222304;28;20752;-82
2022/07/05 15:13:27;;;;;;;3.05;1.63;;;;;;;;;;10217343;28;20043;-82
2022/07/05 15:18:47;;;;;;;2.53;1.50;;;;;;;;;;10221142;28;20486;-82
2022/07/05 15:24:06;;;;;;;3.00;1.35;;;;;;;;;;10209531;28;20047;-82
2022/07/05 15:29:28;;;;;;;1.67;1.20;;;;;;;;;;10223354;28;20043;-82
2022/07/05 15:34:47;;;;;;;3.08;1.48;;;;;;;;;;10198143;28;20052;-82
2022/07/05 15:40:07;;;;;;;3.28;1.58;;;;;;;;;;10224123;28;22487;-82
2022/07/05 15:45:27;;;;;;;3.80;1.65;;;;;;;;;;10201658;28;20545;-82
2022/07/05 15:50:46;;;;;;;3.58;1.70;;;;;;;;;;10216162;28;20135;-82
2022/07/05 15:56:05;;;;;;;1.42;1.20;;;;;;;;;;10224491;28;20118;-82
2022/07/05 16:01:24;;;;;;;2.38;1.30;;;;;;;;;;10223280;28;20040;-82
2022/07/05 16:06:44;;;;;;;1.75;1.23;;;;;;;;;;10197267;29;20114;-82
2022/07/05 16:12:03;;;;;;;3.22;1.23;;;;;;;;;;10211743;29;20047;-81
2022/07/05 16:17:23;;;;;;;2.85;1.45;;;;;;;;;;10228923;28;20050;-81
2022/07/05 16:22:42;;;;;;;1.15;1.05;;;;;;;;;;10220586;28;20045;-81
2022/07/05 16:28:03;;;;;;;1.42;1.27;;;;;;;;;;10214990;28;20055;-81
2022/07/05 16:33:23;;;;;;;1.50;1.20;;;;;;;;;;10240629;28;20091;-81
2022/07/05 16:38:42;;;;;;;3.63;1.10;;;;;;;;;;10228529;28;20063;-82
2022/07/05 16:44:02;;;;;;;1.50;1.40;;;;;;;;;;10212691;28;20040;-82
2022/07/05 16:49:23;;;;;;;1.30;1.20;;;;;;;;;;10205218;29;20047;-82
2022/07/05 16:54:42;;;;;;;1.10;1.00;;;;;;;;;;10215087;28;20039;-82
2022/07/05 17:00:03;;;;;;;1.27;0.93;;;;;;;;;;10216080;28;20040;-82
2022/07/05 17:05:23;;;;;;;1.75;1.30;;;;;;;;;;10219767;28;20039;-82
2022/07/05 17:10:43;;;;;;;2.15;1.08;;;;;;;;;;10223463;28;20126;-82
2022/07/05 17:16:02;;;;;;;2.63;1.10;;;;;;;;;;10219021;28;20035;-82
2022/07/05 17:21:21;;;;;;;1.20;1.10;;;;;;;;;;10220113;28;20060;-82
2022/07/05 17:26:41;;;;;;;1.25;1.15;;;;;;;;;;10204490;28;20423;-82
2022/07/05 17:32:01;;;;;;;1.25;1.15;;;;;;;;;;10226265;28;20037;-82
2022/07/05 17:37:20;;;;;;;2.95;1.33;;;;;;;;;;10209627;29;20055;-82
2022/07/05 17:42:40;;;;;;;1.42;1.33;;;;;;;;;;10218840;28;20048;-82
2022/07/05 17:47:59;;;;;;;1.67;1.23;;;;;;;;;;10241664;28;20054;-82
2022/07/05 17:53:18;;;;;;;4.15;1.30;;;;;;;;;;10215634;28;20040;-82
2022/07/05 17:58:38;;;;;;;2.13;1.30;;;;;;;;;;10247686;28;20043;-82
2022/07/05 18:03:57;;;;;;;1.52;1.30;;;;;;;;;;10213252;29;20720;-83
2022/07/05 18:09:16;;;;;;;1.10;1.10;;;;;;;;;;10229925;28;20467;-83
2022/07/05 18:14:36;;;;;;;1.50;1.27;;;;;;;;;;10208350;29;20046;-83
2022/07/05 18:19:55;;;;;;;2.95;1.50;;;;;;;;;;10220664;28;20044;-82
2022/07/05 18:25:14;;;;;;;1.30;1.13;;;;;;;;;;10207639;28;20048;-81
2022/07/05 18:30:34;;;;;;;2.17;1.40;;;;;;;;;;10221551;28;20051;-81
2022/07/05 18:35:54;;;;;;;3.00;1.20;;;;;;;;;;10218352;28;20093;-82
2022/07/05 18:41:13;;;;;;;2.78;1.67;;;;;;;;;;10219411;28;20040;-81
2022/07/05 18:46:32;;;;;;;2.63;1.27;;;;;;;;;;10223879;28;20483;-82
2022/07/05 18:51:51;;;;;;;2.20;1.35;;;;;;;;;;10193979;28;20040;-83
2022/07/05 18:57:11;;;;;;;3.33;1.60;;;;;;;;;;10199346;28;20055;-82
2022/07/05 19:02:31;;;;;;;2.72;1.80;;;;;;;;;;10231600;28;20107;-83
2022/07/05 19:13:40;;;;;;;2.85;1.92;;;;;;;;;;10236476;28;20102;-82
2022/07/05 19:19:00;;;;;;;1.80;1.70;;;;;;;;;;10227069;28;20043;-81
2022/07/05 19:24:19;;;;;;;2.88;1.50;;;;;;;;;;10209184;29;20403;-81
2022/07/05 19:29:38;;;;;;;2.75;1.60;;;;;;;;;;10214360;28;20054;-81
2022/07/05 19:34:58;;;;;;;1.80;1.70;;;;;;;;;;10196036;28;20051;-81
2022/07/05 19:40:18;;;;;;;2.08;1.80;;;;;;;;;;10218474;28;20408;-81
2022/07/05 19:45:37;;;;;;;2.67;2.00;;;;;;;;;;10206895;28;20040;-82
2022/07/05 19:50:56;;;;;;;4.15;1.95;;;;;;;;;;10220354;28;20077;-81
2022/07/05 19:56:16;;;;;;;2.72;1.90;;;;;;;;;;10217208;28;20095;-81
2022/07/05 20:01:35;;;;;;;2.45;1.80;;;;;;;;;;10201293;28;20052;-80
2022/07/05 20:06:55;;;;;;;2.00;1.80;;;;;;;;;;10200865;28;20111;-81
2022/07/05 20:12:15;;;;;;;3.38;2.00;;;;;;;;;;10215269;28;20068;-81
2022/07/05 20:17:34;;;;;;;2.17;1.95;;;;;;;;;;10214908;28;20115;-81
2022/07/05 20:22:53;;;;;;;2.15;1.90;;;;;;;;;;10204589;29;20060;-81
2022/07/05 20:28:13;;;;;;;2.40;2.20;;;;;;;;;;10212535;28;20585;-81
2022/07/05 20:33:32;;;;;;;3.80;2.47;;;;;;;;;;10198730;29;20491;-81
2022/07/05 20:38:51;;;;;;;2.60;2.40;;;;;;;;;;10213056;28;20503;-81
2022/07/05 20:44:11;;;;;;;2.40;2.20;;;;;;;;;;10201197;29;20039;-82
2022/07/05 20:49:30;;;;;;;3.30;2.85;;;;;;;;;;10226552;28;20062;-81
2022/07/05 20:54:50;;;;;;;5.85;2.90;;;;;;;;;;10220261;28;20083;-83
2022/07/05 21:00:10;;;;;;;3.50;3.20;;;;;;;;;;10201803;28;20058;-82
2022/07/05 21:05:29;;;;;;;3.97;3.05;;;;;;;;;;10223947;28;20043;-82
2022/07/05 21:10:48;;;;;;;3.33;2.80;;;;;;;;;;10221071;29;20590;-82
2022/07/05 21:16:08;;;;;;;3.25;2.95;;;;;;;;;;10225537;29;20047;-82
2022/07/05 21:21:27;;;;;;;2.80;2.55;;;;;;;;;;10223675;28;20036;-82
2022/07/05 21:26:46;;;;;;;3.20;2.90;;;;;;;;;;10200563;29;20048;-82
2022/07/05 21:32:06;;;;;;;3.35;2.75;;;;;;;;;;10230026;28;20099;-81
2022/07/05 21:37:25;;;;;;;3.47;3.00;;;;;;;;;;10210440;29;20043;-82
2022/07/05 21:42:44;;;;;;;3.33;3.00;;;;;;;;;;10233347;28;20044;-82
2022/07/05 21:48:03;;;;;;;2.63;2.42;;;;;;;;;;10228124;28;20052;-82
2022/07/05 21:53:23;;;;;;;2.97;2.60;;;;;;;;;;10229039;28;20689;-82
2022/07/05 22:04:28;;;;;;;3.05;2.60;;;;;;;;;;10221169;28;20047;-82
2022/07/05 22:09:48;;;;;;;2.90;2.60;;;;;;;;;;10241313;28;20427;-82
2022/07/05 22:15:07;;;;;;;2.95;2.70;;;;;;;;;;10240387;28;20055;-82
2022/07/05 22:20:27;;;;;;;2.80;2.60;;;;;;;;;;10228215;28;20039;-82
2022/07/05 22:25:46;;;;;;;3.15;2.50;;;;;;;;;;10211980;29;20052;-82
2022/07/05 22:31:05;;;;;;;2.70;2.40;;;;;;;;;;10241957;28;20430;-82
2022/07/05 22:36:25;;;;;;;2.40;2.20;;;;;;;;;;10239639;28;20075;-83
2022/07/05 22:41:44;;;;;;;3.40;2.30;;;;;;;;;;10246237;28;20499;-82
2022/07/05 22:47:03;;;;;;;2.65;2.45;;;;;;;;;;10211847;28;20063;-82
2022/07/05 22:52:23;;;;;;;2.40;2.13;;;;;;;;;;10252162;28;20082;-82
2022/07/05 22:57:42;;;;;;;2.63;2.42;;;;;;;;;;10234312;28;20044;-82
2022/07/05 23:03:01;;;;;;;2.38;2.10;;;;;;;;;;10246497;28;20047;-82
2022/07/05 23:08:21;;;;;;;2.35;2.08;;;;;;;;;;10233327;28;20058;-83
2022/07/05 23:13:40;;;;;;;2.25;2.05;;;;;;;;;;10229179;28;20050;-82
2022/07/05 23:19:00;;;;;;;2.25;2.05;;;;;;;;;;10240025;28;20066;-82
2022/07/05 23:29:58;;;;;;;2.03;1.83;;;;;;;;;;10248339;28;20054;-82
2022/07/05 23:35:17;;;;;;;1.95;1.70;;;;;;;;;;10249739;28;20050;-83
2022/07/05 23:40:37;;;;;;;1.77;1.67;;;;;;;;;;10238003;28;20043;-82
2022/07/05 23:45:56;;;;;;;1.85;1.75;;;;;;;;;;10244805;28;20043;-82
2022/07/05 23:51:15;;;;;;;3.05;1.80;;;;;;;;;;10228533;28;20055;-82
2022/07/05 23:56:34;;;;;;;2.47;1.85;;;;;;;;;;10213687;29;20487;-82
